sensor_id;sensor_type;location;lat;lon;timestamp;temperature;humidity
12130;DHT22;6128;59.340;18.040;2023-08-07T00:01:04;19.50;99.90
12130;DHT22;6128;59.340;18.040;2023-08-07T00:03:31;19.60;99.90
12130;DHT22;6128;59.340;18.040;2023-08-07T00:05:58;19.70;99.90
12130;DHT22;6128;59.340;18.040;2023-08-07T00:08:26;19.70;99.90
12130;DHT22;6128;59.340;18.040;2023-08-07T00:10:53;19.70;99.90
12130;DHT22;6128;59.340;18.040;2023-08-07T00:13:20;19.70;99.90
12130;DHT22;6128;59.340;18.040;2023-08-07T00:15:47;19.80;99.90
12130;DHT22;6128;59.340;18.040;2023-08-07T00:18:15;19.70;99.90
12130;DHT22;6128;59.340;18.040;2023-08-07T00:20:42;19.80;99.90
12130;DHT22;6128;59.340;18.040;2023-08-07T00:23:09;19.80;99.90
12130;DHT22;6128;59.340;18.040;2023-08-07T00:25:36;19.80;99.90
12130;DHT22;6128;59.340;18.040;2023-08-07T00:28:04;19.80;99.90
12130;DHT22;6128;59.340;18.040;2023-08-07T00:30:31;19.80;99.90
12130;DHT22;6128;59.340;18.040;2023-08-07T00:32:58;19.80;99.90
12130;DHT22;6128;59.340;18.040;2023-08-07T00:35:26;19.80;99.90
12130;DHT22;6128;59.340;18.040;2023-08-07T00:37:53;19.80;99.90
12130;DHT22;6128;59.340;18.040;2023-08-07T00:40:20;19.70;99.90
12130;DHT22;6128;59.340;18.040;2023-08-07T00:42:47;19.70;99.90
12130;DHT22;6128;59.340;18.040;2023-08-07T00:45:15;19.70;99.90
12130;DHT22;6128;59.340;18.040;2023-08-07T00:47:43;19.60;99.90
12130;DHT22;6128;59.340;18.040;2023-08-07T00:50:10;19.60;99.90
12130;DHT22;6128;59.340;18.040;2023-08-07T00:52:39;19.60;99.90
12130;DHT22;6128;59.340;18.040;2023-08-07T00:55:07;19.60;99.90
12130;DHT22;6128;59.340;18.040;2023-08-07T00:57:34;19.70;99.90
12130;DHT22;6128;59.340;18.040;2023-08-07T01:00:02;19.60;99.90
12130;DHT22;6128;59.340;18.040;2023-08-07T01:02:29;19.70;99.90
12130;DHT22;6128;59.340;18.040;2023-08-07T01:04:57;19.70;99.90
12130;DHT22;6128;59.340;18.040;2023-08-07T01:07:24;19.70;99.90
12130;DHT22;6128;59.340;18.040;2023-08-07T01:09:53;19.70;99.90
12130;DHT22;6128;59.340;18.040;2023-08-07T01:12:27;19.60;99.90
12130;DHT22;6128;59.340;18.040;2023-08-07T01:15:01;19.60;99.90
12130;DHT22;6128;59.340;18.040;2023-08-07T01:17:29;19.50;99.90
12130;DHT22;6128;59.340;18.040;2023-08-07T01:19:59;19.50;99.90
12130;DHT22;6128;59.340;18.040;2023-08-07T01:22:28;19.50;99.90
12130;DHT22;6128;59.340;18.040;2023-08-07T01:24:55;19.50;99.90
12130;DHT22;6128;59.340;18.040;2023-08-07T01:27:30;19.50;99.90
12130;DHT22;6128;59.340;18.040;2023-08-07T01:30:05;19.40;99.90
12130;DHT22;6128;59.340;18.040;2023-08-07T01:32:41;19.50;99.90
12130;DHT22;6128;59.340;18.040;2023-08-07T01:35:12;19.40;99.90
12130;DHT22;6128;59.340;18.040;2023-08-07T01:37:42;19.40;99.90
12130;DHT22;6128;59.340;18.040;2023-08-07T01:40:10;19.40;99.90
12130;DHT22;6128;59.340;18.040;2023-08-07T01:42:39;19.40;99.90
12130;DHT22;6128;59.340;18.040;2023-08-07T01:45:06;19.40;99.90
12130;DHT22;6128;59.340;18.040;2023-08-07T01:47:34;19.50;99.90
12130;DHT22;6128;59.340;18.040;2023-08-07T01:50:02;19.40;99.90
12130;DHT22;6128;59.340;18.040;2023-08-07T01:52:30;19.50;99.90
12130;DHT22;6128;59.340;18.040;2023-08-07T01:54:58;19.50;99.90
12130;DHT22;6128;59.340;18.040;2023-08-07T01:57:25;19.50;99.90
12130;DHT22;6128;59.340;18.040;2023-08-07T01:59:52;19.40;99.90
12130;DHT22;6128;59.340;18.040;2023-08-07T02:02:19;19.40;99.90
12130;DHT22;6128;59.340;18.040;2023-08-07T02:04:47;19.40;99.90
12130;DHT22;6128;59.340;18.040;2023-08-07T02:07:14;19.40;99.90
12130;DHT22;6128;59.340;18.040;2023-08-07T02:09:41;19.40;99.90
12130;DHT22;6128;59.340;18.040;2023-08-07T02:12:10;19.40;99.90
12130;DHT22;6128;59.340;18.040;2023-08-07T02:14:37;19.40;99.90
12130;DHT22;6128;59.340;18.040;2023-08-07T02:17:04;19.40;99.90
12130;DHT22;6128;59.340;18.040;2023-08-07T02:19:32;19.30;99.90
12130;DHT22;6128;59.340;18.040;2023-08-07T02:21:59;19.30;99.90
12130;DHT22;6128;59.340;18.040;2023-08-07T02:24:27;19.40;99.90
12130;DHT22;6128;59.340;18.040;2023-08-07T02:26:55;19.40;99.90
12130;DHT22;6128;59.340;18.040;2023-08-07T02:29:23;19.40;99.90
12130;DHT22;6128;59.340;18.040;2023-08-07T02:31:50;19.40;99.90
12130;DHT22;6128;59.340;18.040;2023-08-07T02:34:17;19.40;99.90
12130;DHT22;6128;59.340;18.040;2023-08-07T02:36:44;19.40;99.90
12130;DHT22;6128;59.340;18.040;2023-08-07T02:39:13;19.40;99.90
12130;DHT22;6128;59.340;18.040;2023-08-07T02:41:41;19.50;99.90
12130;DHT22;6128;59.340;18.040;2023-08-07T02:44:08;19.50;99.90
12130;DHT22;6128;59.340;18.040;2023-08-07T02:46:36;19.40;99.90
12130;DHT22;6128;59.340;18.040;2023-08-07T02:49:03;19.40;99.90
12130;DHT22;6128;59.340;18.040;2023-08-07T02:51:31;19.40;99.90
12130;DHT22;6128;59.340;18.040;2023-08-07T02:53:58;19.40;99.90
12130;DHT22;6128;59.340;18.040;2023-08-07T02:56:25;19.40;99.90
12130;DHT22;6128;59.340;18.040;2023-08-07T02:58:53;19.40;99.90
12130;DHT22;6128;59.340;18.040;2023-08-07T03:01:20;19.40;99.90
12130;DHT22;6128;59.340;18.040;2023-08-07T03:03:49;19.30;99.90
12130;DHT22;6128;59.340;18.040;2023-08-07T03:06:16;19.30;99.90
12130;DHT22;6128;59.340;18.040;2023-08-07T03:08:44;19.40;99.90
12130;DHT22;6128;59.340;18.040;2023-08-07T03:11:12;19.30;99.90
12130;DHT22;6128;59.340;18.040;2023-08-07T03:13:39;19.30;99.90
12130;DHT22;6128;59.340;18.040;2023-08-07T03:16:07;19.30;99.90
12130;DHT22;6128;59.340;18.040;2023-08-07T03:18:35;19.30;99.90
12130;DHT22;6128;59.340;18.040;2023-08-07T03:21:03;19.30;99.90
12130;DHT22;6128;59.340;18.040;2023-08-07T03:23:30;19.30;99.90
12130;DHT22;6128;59.340;18.040;2023-08-07T03:26:05;19.30;99.90
12130;DHT22;6128;59.340;18.040;2023-08-07T03:28:33;19.40;99.90
12130;DHT22;6128;59.340;18.040;2023-08-07T03:31:01;19.40;99.90
12130;DHT22;6128;59.340;18.040;2023-08-07T03:33:29;19.40;99.90
12130;DHT22;6128;59.340;18.040;2023-08-07T03:35:56;19.40;99.90
12130;DHT22;6128;59.340;18.040;2023-08-07T03:38:26;19.50;99.90
12130;DHT22;6128;59.340;18.040;2023-08-07T03:40:53;19.50;99.90
12130;DHT22;6128;59.340;18.040;2023-08-07T03:43:20;19.50;99.90
12130;DHT22;6128;59.340;18.040;2023-08-07T03:45:47;19.50;99.90
12130;DHT22;6128;59.340;18.040;2023-08-07T03:48:14;19.60;99.90
12130;DHT22;6128;59.340;18.040;2023-08-07T03:50:41;19.60;99.90
12130;DHT22;6128;59.340;18.040;2023-08-07T03:53:09;19.60;99.90
12130;DHT22;6128;59.340;18.040;2023-08-07T03:55:37;19.60;99.90
12130;DHT22;6128;59.340;18.040;2023-08-07T03:58:05;19.60;99.90
12130;DHT22;6128;59.340;18.040;2023-08-07T04:00:32;19.60;99.90
12130;DHT22;6128;59.340;18.040;2023-08-07T04:02:59;19.70;99.90
12130;DHT22;6128;59.340;18.040;2023-08-07T04:05:27;19.60;99.90
12130;DHT22;6128;59.340;18.040;2023-08-07T04:07:54;19.70;99.90
12130;DHT22;6128;59.340;18.040;2023-08-07T04:10:22;19.70;99.90
12130;DHT22;6128;59.340;18.040;2023-08-07T04:12:51;19.80;99.90
12130;DHT22;6128;59.340;18.040;2023-08-07T04:15:18;19.70;99.90
12130;DHT22;6128;59.340;18.040;2023-08-07T04:17:45;19.80;99.90
12130;DHT22;6128;59.340;18.040;2023-08-07T04:20:12;19.80;99.90
12130;DHT22;6128;59.340;18.040;2023-08-07T04:22:39;19.80;99.90
12130;DHT22;6128;59.340;18.040;2023-08-07T04:25:07;19.80;99.90
12130;DHT22;6128;59.340;18.040;2023-08-07T04:27:34;19.80;99.90
12130;DHT22;6128;59.340;18.040;2023-08-07T04:30:04;19.80;99.90
12130;DHT22;6128;59.340;18.040;2023-08-07T04:32:32;19.90;99.90
12130;DHT22;6128;59.340;18.040;2023-08-07T04:34:59;19.80;99.90
12130;DHT22;6128;59.340;18.040;2023-08-07T04:37:26;19.80;99.90
12130;DHT22;6128;59.340;18.040;2023-08-07T04:39:56;19.80;99.90
12130;DHT22;6128;59.340;18.040;2023-08-07T04:42:23;19.80;99.90
12130;DHT22;6128;59.340;18.040;2023-08-07T04:44:50;19.80;99.90
12130;DHT22;6128;59.340;18.040;2023-08-07T04:47:19;19.80;99.90
12130;DHT22;6128;59.340;18.040;2023-08-07T04:49:46;19.80;99.90
12130;DHT22;6128;59.340;18.040;2023-08-07T04:52:13;19.80;99.90
12130;DHT22;6128;59.340;18.040;2023-08-07T04:54:40;19.80;99.90
12130;DHT22;6128;59.340;18.040;2023-08-07T04:57:08;19.80;99.90
12130;DHT22;6128;59.340;18.040;2023-08-07T04:59:35;19.80;99.90
12130;DHT22;6128;59.340;18.040;2023-08-07T05:02:02;19.70;99.90
12130;DHT22;6128;59.340;18.040;2023-08-07T05:04:31;19.70;99.90
12130;DHT22;6128;59.340;18.040;2023-08-07T05:06:58;19.60;99.90
12130;DHT22;6128;59.340;18.040;2023-08-07T05:09:26;19.60;99.90
12130;DHT22;6128;59.340;18.040;2023-08-07T05:11:53;19.60;99.90
12130;DHT22;6128;59.340;18.040;2023-08-07T05:14:20;19.60;99.90
12130;DHT22;6128;59.340;18.040;2023-08-07T05:16:48;19.60;99.90
12130;DHT22;6128;59.340;18.040;2023-08-07T05:19:15;19.60;99.90
12130;DHT22;6128;59.340;18.040;2023-08-07T05:21:44;19.60;99.90
12130;DHT22;6128;59.340;18.040;2023-08-07T05:24:18;19.50;99.90
12130;DHT22;6128;59.340;18.040;2023-08-07T05:26:45;19.40;99.90
12130;DHT22;6128;59.340;18.040;2023-08-07T05:29:13;19.40;99.90
12130;DHT22;6128;59.340;18.040;2023-08-07T05:31:40;19.30;99.90
12130;DHT22;6128;59.340;18.040;2023-08-07T05:34:07;19.40;99.90
12130;DHT22;6128;59.340;18.040;2023-08-07T05:36:34;19.50;99.90
12130;DHT22;6128;59.340;18.040;2023-08-07T05:39:03;19.70;99.90
12130;DHT22;6128;59.340;18.040;2023-08-07T05:41:31;19.80;99.90
12130;DHT22;6128;59.340;18.040;2023-08-07T05:43:58;19.90;99.90
12130;DHT22;6128;59.340;18.040;2023-08-07T05:46:25;20.00;99.90
12130;DHT22;6128;59.340;18.040;2023-08-07T05:48:52;20.10;99.90
12130;DHT22;6128;59.340;18.040;2023-08-07T05:51:19;20.20;99.90
12130;DHT22;6128;59.340;18.040;2023-08-07T05:53:46;20.30;99.90
12130;DHT22;6128;59.340;18.040;2023-08-07T05:56:15;20.30;99.90
12130;DHT22;6128;59.340;18.040;2023-08-07T05:58:43;20.20;99.90
12130;DHT22;6128;59.340;18.040;2023-08-07T06:01:10;20.20;99.90
12130;DHT22;6128;59.340;18.040;2023-08-07T06:03:40;20.10;99.90
12130;DHT22;6128;59.340;18.040;2023-08-07T06:06:07;20.20;99.90
12130;DHT22;6128;59.340;18.040;2023-08-07T06:08:34;20.20;99.90
12130;DHT22;6128;59.340;18.040;2023-08-07T06:11:01;20.20;99.90
12130;DHT22;6128;59.340;18.040;2023-08-07T06:13:31;20.40;99.90
12130;DHT22;6128;59.340;18.040;2023-08-07T06:15:59;20.60;99.90
12130;DHT22;6128;59.340;18.040;2023-08-07T06:18:26;20.70;99.90
12130;DHT22;6128;59.340;18.040;2023-08-07T06:20:53;20.80;99.90
12130;DHT22;6128;59.340;18.040;2023-08-07T06:23:20;20.90;99.90
12130;DHT22;6128;59.340;18.040;2023-08-07T06:25:47;21.00;99.90
12130;DHT22;6128;59.340;18.040;2023-08-07T06:28:14;21.20;99.90
12130;DHT22;6128;59.340;18.040;2023-08-07T06:30:43;21.20;99.90
12130;DHT22;6128;59.340;18.040;2023-08-07T06:33:10;21.30;99.90
12130;DHT22;6128;59.340;18.040;2023-08-07T06:35:38;21.70;99.90
12130;DHT22;6128;59.340;18.040;2023-08-07T06:38:05;22.50;99.90
12130;DHT22;6128;59.340;18.040;2023-08-07T06:40:32;23.00;99.90
12130;DHT22;6128;59.340;18.040;2023-08-07T06:43:01;23.00;99.90
12130;DHT22;6128;59.340;18.040;2023-08-07T06:45:28;22.80;99.90
12130;DHT22;6128;59.340;18.040;2023-08-07T06:47:57;22.70;99.90
12130;DHT22;6128;59.340;18.040;2023-08-07T06:50:24;22.60;99.90
12130;DHT22;6128;59.340;18.040;2023-08-07T06:52:52;22.50;99.90
12130;DHT22;6128;59.340;18.040;2023-08-07T06:55:20;22.20;99.90
12130;DHT22;6128;59.340;18.040;2023-08-07T06:57:47;22.50;99.90
12130;DHT22;6128;59.340;18.040;2023-08-07T07:00:15;23.30;99.90
12130;DHT22;6128;59.340;18.040;2023-08-07T07:02:42;24.00;99.90
12130;DHT22;6128;59.340;18.040;2023-08-07T07:05:11;24.60;99.90
12130;DHT22;6128;59.340;18.040;2023-08-07T07:07:39;24.80;99.90
12130;DHT22;6128;59.340;18.040;2023-08-07T07:10:06;25.00;99.90
12130;DHT22;6128;59.340;18.040;2023-08-07T07:12:34;25.50;99.90
12130;DHT22;6128;59.340;18.040;2023-08-07T07:15:01;25.40;99.90
12130;DHT22;6128;59.340;18.040;2023-08-07T07:17:28;25.60;99.90
12130;DHT22;6128;59.340;18.040;2023-08-07T07:19:55;25.70;99.90
12130;DHT22;6128;59.340;18.040;2023-08-07T07:22:24;25.70;99.90
12130;DHT22;6128;59.340;18.040;2023-08-07T07:24:51;25.60;99.90
12130;DHT22;6128;59.340;18.040;2023-08-07T07:27:18;25.70;99.90
12130;DHT22;6128;59.340;18.040;2023-08-07T07:29:45;25.70;99.90
12130;DHT22;6128;59.340;18.040;2023-08-07T07:32:12;25.00;99.90
12130;DHT22;6128;59.340;18.040;2023-08-07T07:34:40;24.80;99.90
12130;DHT22;6128;59.340;18.040;2023-08-07T07:37:07;24.40;99.90
12130;DHT22;6128;59.340;18.040;2023-08-07T07:39:36;24.10;99.90
12130;DHT22;6128;59.340;18.040;2023-08-07T07:42:04;23.70;99.90
12130;DHT22;6128;59.340;18.040;2023-08-07T07:44:31;23.40;99.90
12130;DHT22;6128;59.340;18.040;2023-08-07T07:46:59;23.10;99.90
12130;DHT22;6128;59.340;18.040;2023-08-07T07:49:26;22.90;99.90
12130;DHT22;6128;59.340;18.040;2023-08-07T07:51:53;22.80;99.90
12130;DHT22;6128;59.340;18.040;2023-08-07T07:54:21;22.60;99.90
12130;DHT22;6128;59.340;18.040;2023-08-07T07:56:49;22.60;99.90
12130;DHT22;6128;59.340;18.040;2023-08-07T07:59:16;22.50;99.90
12130;DHT22;6128;59.340;18.040;2023-08-07T08:01:44;22.70;99.90
12130;DHT22;6128;59.340;18.040;2023-08-07T08:04:11;23.00;99.90
12130;DHT22;6128;59.340;18.040;2023-08-07T08:06:39;23.30;99.90
12130;DHT22;6128;59.340;18.040;2023-08-07T08:09:06;23.60;99.90
12130;DHT22;6128;59.340;18.040;2023-08-07T08:11:35;23.80;99.90
12130;DHT22;6128;59.340;18.040;2023-08-07T08:14:04;24.00;99.90
12130;DHT22;6128;59.340;18.040;2023-08-07T08:16:31;24.20;99.90
12130;DHT22;6128;59.340;18.040;2023-08-07T08:18:58;24.20;99.90
12130;DHT22;6128;59.340;18.040;2023-08-07T08:21:25;24.20;99.90
12130;DHT22;6128;59.340;18.040;2023-08-07T08:23:52;24.20;99.90
12130;DHT22;6128;59.340;18.040;2023-08-07T08:26:19;24.00;99.90
12130;DHT22;6128;59.340;18.040;2023-08-07T08:28:46;24.10;99.90
12130;DHT22;6128;59.340;18.040;2023-08-07T08:31:15;23.90;99.90
12130;DHT22;6128;59.340;18.040;2023-08-07T08:33:42;23.70;99.90
12130;DHT22;6128;59.340;18.040;2023-08-07T08:36:09;23.60;99.90
12130;DHT22;6128;59.340;18.040;2023-08-07T08:38:36;23.30;99.90
12130;DHT22;6128;59.340;18.040;2023-08-07T08:41:03;23.30;99.90
12130;DHT22;6128;59.340;18.040;2023-08-07T08:43:34;23.50;99.90
12130;DHT22;6128;59.340;18.040;2023-08-07T08:46:01;23.60;99.90
12130;DHT22;6128;59.340;18.040;2023-08-07T08:48:34;24.00;99.90
12130;DHT22;6128;59.340;18.040;2023-08-07T08:51:02;24.40;99.90
12130;DHT22;6128;59.340;18.040;2023-08-07T08:53:31;24.20;99.90
12130;DHT22;6128;59.340;18.040;2023-08-07T08:56:00;24.20;99.90
12130;DHT22;6128;59.340;18.040;2023-08-07T08:58:28;24.50;99.90
12130;DHT22;6128;59.340;18.040;2023-08-07T09:00:55;24.70;99.90
12130;DHT22;6128;59.340;18.040;2023-08-07T09:03:24;24.80;99.90
12130;DHT22;6128;59.340;18.040;2023-08-07T09:05:57;24.90;99.90
12130;DHT22;6128;59.340;18.040;2023-08-07T09:08:26;25.20;99.90
12130;DHT22;6128;59.340;18.040;2023-08-07T09:10:55;25.20;99.90
12130;DHT22;6128;59.340;18.040;2023-08-07T09:13:24;25.30;99.90
12130;DHT22;6128;59.340;18.040;2023-08-07T09:15:51;25.40;99.90
12130;DHT22;6128;59.340;18.040;2023-08-07T09:18:19;25.60;99.90
12130;DHT22;6128;59.340;18.040;2023-08-07T09:20:47;25.30;99.90
12130;DHT22;6128;59.340;18.040;2023-08-07T09:23:16;25.00;99.90
12130;DHT22;6128;59.340;18.040;2023-08-07T09:25:43;24.40;99.90
12130;DHT22;6128;59.340;18.040;2023-08-07T09:28:11;24.10;99.90
12130;DHT22;6128;59.340;18.040;2023-08-07T09:30:38;24.10;99.90
12130;DHT22;6128;59.340;18.040;2023-08-07T09:33:05;24.00;99.90
12130;DHT22;6128;59.340;18.040;2023-08-07T09:35:33;24.10;99.90
12130;DHT22;6128;59.340;18.040;2023-08-07T09:38:01;24.20;99.90
12130;DHT22;6128;59.340;18.040;2023-08-07T09:40:31;24.00;99.90
12130;DHT22;6128;59.340;18.040;2023-08-07T09:43:00;23.80;99.90
12130;DHT22;6128;59.340;18.040;2023-08-07T09:45:28;23.60;99.90
12130;DHT22;6128;59.340;18.040;2023-08-07T09:47:58;23.50;99.90
12130;DHT22;6128;59.340;18.040;2023-08-07T09:50:25;23.60;99.90
12130;DHT22;6128;59.340;18.040;2023-08-07T09:52:53;23.40;99.90
12130;DHT22;6128;59.340;18.040;2023-08-07T09:55:21;23.30;99.90
12130;DHT22;6128;59.340;18.040;2023-08-07T09:57:50;23.40;99.90
12130;DHT22;6128;59.340;18.040;2023-08-07T10:00:18;23.40;99.90
12130;DHT22;6128;59.340;18.040;2023-08-07T10:02:47;23.50;99.90
12130;DHT22;6128;59.340;18.040;2023-08-07T10:05:14;23.60;99.90
12130;DHT22;6128;59.340;18.040;2023-08-07T10:07:42;23.70;99.90
12130;DHT22;6128;59.340;18.040;2023-08-07T10:10:09;23.80;99.90
12130;DHT22;6128;59.340;18.040;2023-08-07T10:12:37;23.90;99.90
12130;DHT22;6128;59.340;18.040;2023-08-07T10:15:07;23.90;99.90
12130;DHT22;6128;59.340;18.040;2023-08-07T10:17:34;24.00;99.90
12130;DHT22;6128;59.340;18.040;2023-08-07T10:20:02;24.00;99.90
12130;DHT22;6128;59.340;18.040;2023-08-07T10:22:30;24.10;99.90
12130;DHT22;6128;59.340;18.040;2023-08-07T10:25:01;24.10;99.90
12130;DHT22;6128;59.340;18.040;2023-08-07T10:27:30;23.90;99.90
12130;DHT22;6128;59.340;18.040;2023-08-07T10:30:00;23.80;99.90
12130;DHT22;6128;59.340;18.040;2023-08-07T10:32:30;23.60;99.90
12130;DHT22;6128;59.340;18.040;2023-08-07T10:34:58;23.60;99.90
12130;DHT22;6128;59.340;18.040;2023-08-07T10:37:39;23.50;99.90
12130;DHT22;6128;59.340;18.040;2023-08-07T10:40:08;23.40;99.90
12130;DHT22;6128;59.340;18.040;2023-08-07T10:42:55;23.30;99.90
12130;DHT22;6128;59.340;18.040;2023-08-07T10:45:23;23.40;99.90
12130;DHT22;6128;59.340;18.040;2023-08-07T10:48:18;23.50;99.90
12130;DHT22;6128;59.340;18.040;2023-08-07T10:50:56;23.50;99.90
12130;DHT22;6128;59.340;18.040;2023-08-07T10:53:30;23.60;99.90
12130;DHT22;6128;59.340;18.040;2023-08-07T10:55:57;23.70;99.90
12130;DHT22;6128;59.340;18.040;2023-08-07T10:58:26;23.60;99.90
12130;DHT22;6128;59.340;18.040;2023-08-07T11:01:16;23.60;99.90
12130;DHT22;6128;59.340;18.040;2023-08-07T11:03:45;23.50;99.90
12130;DHT22;6128;59.340;18.040;2023-08-07T11:06:15;23.50;99.90
12130;DHT22;6128;59.340;18.040;2023-08-07T11:08:52;23.40;99.90
12130;DHT22;6128;59.340;18.040;2023-08-07T11:11:19;23.50;99.90
12130;DHT22;6128;59.340;18.040;2023-08-07T11:13:46;23.40;99.90
12130;DHT22;6128;59.340;18.040;2023-08-07T11:16:13;23.50;99.90
12130;DHT22;6128;59.340;18.040;2023-08-07T11:18:43;23.50;99.90
12130;DHT22;6128;59.340;18.040;2023-08-07T11:21:14;23.40;99.90
12130;DHT22;6128;59.340;18.040;2023-08-07T11:23:44;23.50;99.90
12130;DHT22;6128;59.340;18.040;2023-08-07T11:26:12;23.40;99.90
12130;DHT22;6128;59.340;18.040;2023-08-07T11:28:39;23.50;99.90
12130;DHT22;6128;59.340;18.040;2023-08-07T11:31:07;23.40;99.90
12130;DHT22;6128;59.340;18.040;2023-08-07T11:33:36;23.50;99.90
12130;DHT22;6128;59.340;18.040;2023-08-07T11:36:03;23.60;99.90
12130;DHT22;6128;59.340;18.040;2023-08-07T11:38:39;23.60;99.90
12130;DHT22;6128;59.340;18.040;2023-08-07T11:41:09;23.70;99.90
12130;DHT22;6128;59.340;18.040;2023-08-07T11:43:38;23.80;99.90
12130;DHT22;6128;59.340;18.040;2023-08-07T11:46:07;23.50;99.90
12130;DHT22;6128;59.340;18.040;2023-08-07T11:48:36;23.60;99.90
12130;DHT22;6128;59.340;18.040;2023-08-07T11:51:04;23.70;99.90
12130;DHT22;6128;59.340;18.040;2023-08-07T11:53:33;23.80;99.90
12130;DHT22;6128;59.340;18.040;2023-08-07T11:56:02;23.90;99.90
12130;DHT22;6128;59.340;18.040;2023-08-07T11:58:35;23.80;99.90
12130;DHT22;6128;59.340;18.040;2023-08-07T12:01:06;23.70;99.90
12130;DHT22;6128;59.340;18.040;2023-08-07T12:03:35;23.60;99.90
12130;DHT22;6128;59.340;18.040;2023-08-07T12:06:05;23.70;99.90
12130;DHT22;6128;59.340;18.040;2023-08-07T12:08:34;23.80;99.90
12130;DHT22;6128;59.340;18.040;2023-08-07T12:11:05;23.70;99.90
12130;DHT22;6128;59.340;18.040;2023-08-07T12:13:33;23.60;99.90
12130;DHT22;6128;59.340;18.040;2023-08-07T12:16:01;23.60;99.90
12130;DHT22;6128;59.340;18.040;2023-08-07T12:18:30;23.60;99.90
12130;DHT22;6128;59.340;18.040;2023-08-07T12:20:58;23.60;99.90
12130;DHT22;6128;59.340;18.040;2023-08-07T12:23:26;23.70;99.90
12130;DHT22;6128;59.340;18.040;2023-08-07T12:25:54;23.80;99.90
12130;DHT22;6128;59.340;18.040;2023-08-07T12:28:22;23.90;99.90
12130;DHT22;6128;59.340;18.040;2023-08-07T12:30:51;24.00;99.90
12130;DHT22;6128;59.340;18.040;2023-08-07T12:33:19;24.00;99.90
12130;DHT22;6128;59.340;18.040;2023-08-07T12:35:46;24.00;99.90
12130;DHT22;6128;59.340;18.040;2023-08-07T12:38:13;24.00;99.90
12130;DHT22;6128;59.340;18.040;2023-08-07T12:40:41;23.70;99.90
12130;DHT22;6128;59.340;18.040;2023-08-07T12:43:08;23.60;99.90
12130;DHT22;6128;59.340;18.040;2023-08-07T12:45:36;23.60;99.90
12130;DHT22;6128;59.340;18.040;2023-08-07T12:48:04;23.60;99.90
12130;DHT22;6128;59.340;18.040;2023-08-07T12:50:31;23.80;99.90
12130;DHT22;6128;59.340;18.040;2023-08-07T12:52:58;23.80;99.90
12130;DHT22;6128;59.340;18.040;2023-08-07T12:55:25;23.90;99.90
12130;DHT22;6128;59.340;18.040;2023-08-07T12:57:54;23.80;99.90
12130;DHT22;6128;59.340;18.040;2023-08-07T13:00:22;23.60;99.90
12130;DHT22;6128;59.340;18.040;2023-08-07T13:02:50;23.60;99.90
12130;DHT22;6128;59.340;18.040;2023-08-07T13:05:19;23.70;99.90
12130;DHT22;6128;59.340;18.040;2023-08-07T13:07:47;23.60;99.90
12130;DHT22;6128;59.340;18.040;2023-08-07T13:10:15;23.50;99.90
12130;DHT22;6128;59.340;18.040;2023-08-07T13:12:44;23.60;99.90
12130;DHT22;6128;59.340;18.040;2023-08-07T13:15:13;23.60;99.90
12130;DHT22;6128;59.340;18.040;2023-08-07T13:17:41;23.60;99.90
12130;DHT22;6128;59.340;18.040;2023-08-07T13:20:10;23.60;99.90
12130;DHT22;6128;59.340;18.040;2023-08-07T13:22:39;23.70;99.90
12130;DHT22;6128;59.340;18.040;2023-08-07T13:25:06;23.60;99.90
12130;DHT22;6128;59.340;18.040;2023-08-07T13:27:34;23.60;99.90
12130;DHT22;6128;59.340;18.040;2023-08-07T13:30:02;23.50;99.90
12130;DHT22;6128;59.340;18.040;2023-08-07T13:32:30;23.50;99.90
12130;DHT22;6128;59.340;18.040;2023-08-07T13:34:57;23.60;99.90
12130;DHT22;6128;59.340;18.040;2023-08-07T13:37:26;23.50;99.90
12130;DHT22;6128;59.340;18.040;2023-08-07T13:39:53;23.60;99.90
12130;DHT22;6128;59.340;18.040;2023-08-07T13:42:23;23.60;99.90
12130;DHT22;6128;59.340;18.040;2023-08-07T13:44:51;23.60;99.90
12130;DHT22;6128;59.340;18.040;2023-08-07T13:47:18;23.50;99.90
12130;DHT22;6128;59.340;18.040;2023-08-07T13:49:46;23.50;99.90
12130;DHT22;6128;59.340;18.040;2023-08-07T13:52:14;23.30;99.90
12130;DHT22;6128;59.340;18.040;2023-08-07T13:54:42;23.20;99.90
12130;DHT22;6128;59.340;18.040;2023-08-07T13:57:09;23.20;99.90
12130;DHT22;6128;59.340;18.040;2023-08-07T13:59:36;23.10;99.90
12130;DHT22;6128;59.340;18.040;2023-08-07T14:02:03;23.10;99.90
12130;DHT22;6128;59.340;18.040;2023-08-07T14:04:31;23.10;99.90
12130;DHT22;6128;59.340;18.040;2023-08-07T14:06:59;23.20;99.90
12130;DHT22;6128;59.340;18.040;2023-08-07T14:09:26;23.20;99.90
12130;DHT22;6128;59.340;18.040;2023-08-07T14:11:54;23.20;99.90
12130;DHT22;6128;59.340;18.040;2023-08-07T14:14:22;23.20;99.90
12130;DHT22;6128;59.340;18.040;2023-08-07T14:16:49;23.30;99.90
12130;DHT22;6128;59.340;18.040;2023-08-07T14:19:17;23.30;99.90
12130;DHT22;6128;59.340;18.040;2023-08-07T14:21:44;23.40;99.90
12130;DHT22;6128;59.340;18.040;2023-08-07T14:24:11;23.30;99.90
12130;DHT22;6128;59.340;18.040;2023-08-07T14:26:38;23.10;99.90
12130;DHT22;6128;59.340;18.040;2023-08-07T14:29:07;23.20;99.90
12130;DHT22;6128;59.340;18.040;2023-08-07T14:31:34;23.10;99.90
12130;DHT22;6128;59.340;18.040;2023-08-07T14:34:01;23.10;99.90
12130;DHT22;6128;59.340;18.040;2023-08-07T14:36:28;23.00;99.90
12130;DHT22;6128;59.340;18.040;2023-08-07T14:38:55;23.00;99.90
12130;DHT22;6128;59.340;18.040;2023-08-07T14:41:22;22.90;99.90
12130;DHT22;6128;59.340;18.040;2023-08-07T14:43:49;22.90;99.90
12130;DHT22;6128;59.340;18.040;2023-08-07T14:46:18;22.80;99.90
12130;DHT22;6128;59.340;18.040;2023-08-07T14:48:45;22.70;99.90
12130;DHT22;6128;59.340;18.040;2023-08-07T14:51:13;22.70;99.90
12130;DHT22;6128;59.340;18.040;2023-08-07T14:53:40;22.80;99.90
12130;DHT22;6128;59.340;18.040;2023-08-07T14:56:07;22.80;99.90
12130;DHT22;6128;59.340;18.040;2023-08-07T14:58:35;22.70;99.90
12130;DHT22;6128;59.340;18.040;2023-08-07T15:01:02;22.50;99.90
12130;DHT22;6128;59.340;18.040;2023-08-07T15:03:31;22.30;99.90
12130;DHT22;6128;59.340;18.040;2023-08-07T15:05:58;22.30;99.90
12130;DHT22;6128;59.340;18.040;2023-08-07T15:08:26;22.20;99.90
12130;DHT22;6128;59.340;18.040;2023-08-07T15:10:53;22.20;99.90
12130;DHT22;6128;59.340;18.040;2023-08-07T15:13:20;22.20;99.90
12130;DHT22;6128;59.340;18.040;2023-08-07T15:15:47;22.20;99.90
12130;DHT22;6128;59.340;18.040;2023-08-07T15:18:14;22.20;99.90
12130;DHT22;6128;59.340;18.040;2023-08-07T15:20:43;22.10;99.90
12130;DHT22;6128;59.340;18.040;2023-08-07T15:23:10;22.00;99.90
12130;DHT22;6128;59.340;18.040;2023-08-07T15:25:38;22.10;99.90
12130;DHT22;6128;59.340;18.040;2023-08-07T15:28:06;22.10;99.90
12130;DHT22;6128;59.340;18.040;2023-08-07T15:30:33;22.20;99.90
12130;DHT22;6128;59.340;18.040;2023-08-07T15:33:00;22.10;99.90
12130;DHT22;6128;59.340;18.040;2023-08-07T15:35:29;22.10;99.90